createdAt,value
2023-02-11T00:01:22.237Z,34.72
2023-02-11T00:03:48.831Z,34.92
2023-02-11T00:06:15.850Z,34.30
2023-02-11T00:08:42.489Z,34.90
2023-02-11T00:11:12.960Z,32.45
2023-02-11T00:13:39.455Z,33.90
2023-02-11T00:16:08.032Z,33.90
2023-02-11T00:18:34.580Z,34.67
2023-02-11T00:21:06.207Z,33.67
2023-02-11T00:23:32.719Z,35.38
2023-02-11T00:25:59.287Z,32.10
2023-02-11T00:28:25.825Z,33.70
2023-02-11T00:30:56.846Z,32.05
2023-02-11T00:35:50.818Z,34.25
2023-02-11T00:38:17.815Z,32.17
2023-02-11T00:40:44.341Z,34.17
2023-02-11T00:43:10.802Z,32.35
2023-02-11T00:45:37.346Z,30.35
2023-02-11T00:48:06.586Z,31.55
2023-02-11T00:50:33.187Z,32.60
2023-02-11T00:52:59.697Z,31.95
2023-02-11T00:55:26.215Z,33.13
2023-02-11T00:57:52.734Z,33.72
2023-02-11T01:00:19.573Z,32.00
2023-02-11T01:02:46.204Z,31.95
2023-02-11T01:05:12.735Z,31.52
2023-02-11T01:07:39.248Z,33.30
2023-02-11T01:10:06.006Z,32.95
2023-02-11T01:12:34.580Z,31.38
2023-02-11T01:15:03.049Z,30.83
2023-02-11T01:17:29.521Z,30.75
2023-02-11T01:19:56.066Z,31.30
2023-02-11T01:22:22.636Z,32.55
2023-02-11T01:24:49.137Z,32.30
2023-02-11T01:27:15.668Z,26.42
2023-02-11T01:29:42.167Z,30.15
2023-02-11T01:32:08.699Z,30.48
2023-02-11T01:34:35.326Z,31.08
2023-02-11T01:37:01.812Z,29.05
2023-02-11T01:39:28.843Z,29.42
2023-02-11T01:41:55.390Z,30.05
2023-02-11T01:44:27.767Z,32.90
2023-02-11T01:46:54.569Z,29.30
2023-02-11T01:49:29.499Z,31.25
2023-02-11T01:52:04.473Z,31.33
2023-02-11T01:54:54.069Z,30.02
2023-02-11T01:57:23.198Z,29.58
2023-02-11T02:00:16.212Z,30.63
2023-02-11T02:02:49.096Z,30.60
2023-02-11T02:05:44.656Z,32.45
2023-02-11T02:08:13.531Z,31.13
2023-02-11T02:10:48.961Z,30.40
2023-02-11T02:13:17.390Z,30.90
2023-02-11T02:15:52.737Z,32.38
2023-02-11T02:18:28.501Z,29.33
2023-02-11T02:21:22.913Z,34.92
2023-02-11T02:24:21.927Z,31.27
2023-02-11T02:27:03.296Z,30.85
2023-02-11T02:29:54.244Z,32.10
2023-02-11T02:32:36.960Z,32.67
2023-02-11T02:35:35.755Z,33.47
2023-02-11T02:38:20.758Z,33.53
2023-02-11T02:40:51.064Z,32.92
2023-02-11T02:43:18.209Z,31.58
2023-02-11T02:45:44.797Z,32.70
2023-02-11T02:48:29.163Z,32.53
2023-02-11T02:51:09.160Z,32.30
2023-02-11T02:53:48.214Z,34.00
2023-02-11T02:56:21.144Z,33.58
2023-02-11T02:59:03.860Z,35.70
2023-02-11T03:01:38.510Z,34.13
2023-02-11T03:04:32.122Z,34.55
2023-02-11T03:07:09.307Z,34.38
2023-02-11T03:09:55.287Z,33.95
2023-02-11T03:12:22.894Z,34.63
2023-02-11T03:14:51.455Z,34.67
2023-02-11T03:17:18.503Z,34.20
2023-02-11T03:19:46.787Z,36.78
2023-02-11T03:22:18.113Z,34.20
2023-02-11T03:24:45.037Z,35.45
2023-02-11T03:27:19.529Z,35.42
2023-02-11T03:29:58.597Z,34.58
2023-02-11T03:32:31.058Z,36.38
2023-02-11T03:35:01.342Z,37.92
2023-02-11T03:37:45.202Z,35.78
2023-02-11T03:40:14.015Z,36.50
2023-02-11T03:42:44.137Z,35.95
2023-02-11T03:45:13.043Z,36.33
2023-02-11T03:47:41.915Z,37.00
2023-02-11T03:50:10.431Z,36.58
2023-02-11T03:52:38.334Z,36.60
2023-02-11T03:55:12.020Z,38.45
2023-02-11T03:57:38.612Z,36.70
2023-02-11T04:00:06.101Z,36.83
2023-02-11T04:02:38.762Z,39.13
2023-02-11T04:05:07.191Z,38.03
2023-02-11T04:07:34.203Z,37.35
2023-02-11T04:10:00.738Z,37.75
2023-02-11T04:12:27.246Z,38.42
2023-02-11T04:14:53.813Z,37.80
2023-02-11T04:17:20.299Z,39.55
2023-02-11T04:19:46.962Z,40.22
2023-02-11T04:22:13.611Z,38.08
2023-02-11T04:24:40.110Z,39.45
2023-02-11T04:27:06.642Z,38.40
2023-02-11T04:29:33.366Z,38.33
2023-02-11T04:31:59.917Z,39.35
2023-02-11T04:34:26.783Z,40.97
2023-02-11T04:36:53.295Z,37.83
2023-02-11T04:39:19.777Z,38.25
2023-02-11T04:41:46.307Z,41.55
2023-02-11T04:44:12.801Z,40.05
2023-02-11T04:46:39.295Z,40.95
2023-02-11T04:49:05.884Z,42.47
2023-02-11T04:51:32.488Z,40.80
2023-02-11T04:53:58.981Z,39.03
2023-02-11T04:56:25.462Z,40.88
2023-02-11T04:58:51.980Z,39.83
2023-02-11T05:01:18.533Z,43.13
2023-02-11T05:03:45.152Z,41.25
2023-02-11T05:06:11.850Z,42.40
2023-02-11T05:08:38.713Z,40.25
2023-02-11T05:11:05.354Z,42.45
2023-02-11T05:13:32.182Z,42.58
2023-02-11T05:15:58.678Z,42.22
2023-02-11T05:18:25.303Z,43.67
2023-02-11T05:20:51.840Z,44.45
2023-02-11T05:23:18.332Z,42.17
2023-02-11T05:25:44.829Z,45.90
2023-02-11T05:28:11.556Z,43.63
2023-02-11T05:30:38.086Z,44.42
2023-02-11T05:33:04.721Z,45.13
2023-02-11T05:35:31.248Z,46.42
2023-02-11T05:37:57.980Z,44.50
2023-02-11T05:40:24.619Z,45.60
2023-02-11T05:42:51.120Z,43.38
2023-02-11T05:45:17.619Z,46.58
2023-02-11T05:47:44.100Z,45.17
2023-02-11T05:50:10.606Z,47.78
2023-02-11T05:52:37.121Z,42.40
2023-02-11T05:55:04.046Z,47.10
2023-02-11T05:57:30.608Z,43.60
2023-02-11T05:59:57.166Z,46.35
2023-02-11T06:02:23.684Z,46.63
2023-02-11T06:04:50.407Z,48.97
2023-02-11T06:07:17.438Z,48.50
2023-02-11T06:09:44.281Z,48.60
2023-02-11T06:12:11.122Z,47.63
2023-02-11T06:14:38.043Z,48.58
2023-02-11T06:17:06.417Z,50.10
2023-02-11T06:19:33.674Z,49.35
2023-02-11T06:22:05.058Z,48.97
2023-02-11T06:24:58.651Z,50.33
2023-02-11T06:27:19.204Z,48.15
2023-02-11T06:29:46.484Z,50.97
2023-02-11T06:32:36.908Z,48.45
2023-02-11T06:35:02.656Z,47.88
2023-02-11T06:37:29.220Z,49.38
2023-02-11T06:39:55.857Z,50.60
2023-02-11T06:42:22.996Z,51.38
2023-02-11T06:44:49.829Z,49.38
2023-02-11T06:47:16.362Z,44.05
2023-02-11T06:49:43.052Z,51.13
2023-02-11T06:52:09.874Z,49.10
2023-02-11T06:54:37.613Z,49.00
2023-02-11T06:57:04.566Z,48.92
2023-02-11T06:59:31.291Z,52.28
2023-02-11T07:01:57.985Z,48.70
2023-02-11T07:04:24.536Z,49.28
2023-02-11T07:06:51.058Z,48.10
2023-02-11T07:09:17.526Z,50.60
2023-02-11T07:11:44.040Z,49.35
2023-02-11T07:14:13.577Z,49.25
2023-02-11T07:16:40.538Z,50.22
2023-02-11T07:19:07.101Z,50.88
2023-02-11T07:21:33.938Z,51.40
2023-02-11T07:24:02.182Z,49.95
2023-02-11T07:26:31.720Z,49.33
2023-02-11T07:28:58.287Z,50.50
2023-02-11T07:31:26.904Z,49.15
2023-02-11T07:33:55.332Z,46.22
2023-02-11T07:36:22.457Z,49.53
2023-02-11T07:38:49.031Z,48.05
2023-02-11T07:41:18.068Z,44.40
2023-02-11T07:43:44.892Z,45.25
2023-02-11T07:46:15.287Z,46.80
2023-02-11T07:48:41.892Z,47.75
2023-02-11T07:51:17.239Z,51.58
2023-02-11T07:53:44.351Z,49.50
2023-02-11T07:56:11.417Z,48.00
2023-02-11T07:58:39.028Z,49.92
2023-02-11T08:01:07.074Z,48.60
2023-02-11T08:03:34.910Z,48.63
2023-02-11T08:06:06.134Z,47.47
2023-02-11T08:10:59.313Z,47.55
2023-02-11T08:13:27.013Z,46.70
2023-02-11T08:15:53.581Z,48.03
2023-02-11T08:18:20.090Z,46.97
2023-02-11T08:20:46.871Z,49.10
2023-02-11T08:23:13.596Z,47.20
2023-02-11T08:25:40.440Z,45.42
2023-02-11T08:28:07.149Z,47.38
2023-02-11T08:30:34.689Z,46.22
2023-02-11T08:33:01.216Z,44.35
2023-02-11T08:35:27.913Z,46.67
2023-02-11T08:37:54.491Z,46.92
2023-02-11T08:40:20.975Z,47.42
2023-02-11T08:42:47.595Z,38.97
2023-02-11T08:45:14.156Z,45.45
2023-02-11T08:47:40.702Z,45.38
2023-02-11T08:50:07.567Z,45.35
2023-02-11T08:52:34.524Z,44.22
2023-02-11T08:55:01.199Z,42.53
2023-02-11T08:57:27.733Z,46.33
2023-02-11T08:59:54.325Z,43.00
2023-02-11T09:02:20.931Z,45.25
2023-02-11T09:04:47.504Z,44.63
2023-02-11T09:07:14.174Z,46.15
2023-02-11T09:09:40.677Z,46.15
2023-02-11T09:12:07.403Z,44.97
2023-02-11T09:14:34.036Z,44.10
2023-02-11T09:17:00.837Z,43.10
2023-02-11T09:19:27.548Z,45.20
2023-02-11T09:21:54.056Z,42.28
2023-02-11T09:24:20.590Z,47.00
2023-02-11T09:26:47.226Z,43.83
2023-02-11T09:29:13.744Z,44.42
2023-02-11T09:31:40.449Z,41.63
2023-02-11T09:34:07.136Z,42.95
2023-02-11T09:36:37.556Z,43.63
2023-02-11T09:39:05.435Z,42.53
2023-02-11T09:41:47.137Z,41.45
2023-02-11T09:44:20.111Z,41.03
2023-02-11T09:46:50.618Z,41.08
2023-02-11T09:49:23.154Z,40.38
2023-02-11T09:51:58.216Z,40.03
2023-02-11T09:54:40.594Z,43.45
2023-02-11T09:57:22.964Z,39.13
2023-02-11T09:59:54.558Z,39.72
2023-02-11T10:02:38.148Z,38.83
2023-02-11T10:05:20.028Z,37.80
2023-02-11T10:07:54.429Z,38.35
2023-02-11T10:10:36.772Z,40.17
2023-02-11T10:13:43.546Z,42.65
2023-02-11T10:16:22.517Z,37.65
2023-02-11T10:19:20.339Z,39.78
2023-02-11T10:22:02.140Z,41.00
2023-02-11T10:24:29.200Z,37.53
2023-02-11T10:26:55.800Z,41.00
2023-02-11T10:29:35.633Z,39.92
2023-02-11T10:32:06.554Z,41.72
2023-02-11T10:34:33.188Z,41.45
2023-02-11T10:37:00.371Z,45.13
2023-02-11T10:39:27.684Z,41.90
2023-02-11T10:41:57.553Z,41.40
2023-02-11T10:44:40.336Z,44.15
2023-02-11T10:47:18.694Z,42.35
2023-02-11T10:49:46.427Z,42.45
2023-02-11T10:52:27.507Z,39.50
2023-02-11T10:57:31.333Z,38.85
2023-02-11T10:59:59.995Z,42.35
2023-02-11T11:02:34.349Z,40.53
2023-02-11T11:05:04.505Z,42.75
2023-02-11T11:07:33.212Z,44.33
2023-02-11T11:10:49.566Z,41.28
2023-02-11T11:13:37.456Z,40.67
2023-02-11T11:16:13.950Z,40.90
2023-02-11T11:18:43.824Z,41.80
2023-02-11T11:21:17.981Z,35.97
2023-02-11T11:23:59.227Z,40.17
2023-02-11T11:26:40.362Z,40.75
2023-02-11T11:31:37.395Z,37.33
2023-02-11T11:34:19.255Z,41.28
2023-02-11T11:36:45.780Z,39.22
2023-02-11T11:39:21.521Z,38.28
2023-02-11T11:41:57.608Z,38.28
2023-02-11T11:44:32.830Z,39.50
2023-02-11T11:47:20.640Z,35.72
2023-02-11T11:50:06.283Z,37.45
2023-02-11T11:52:50.990Z,35.88
2023-02-11T11:55:31.566Z,38.00
2023-02-11T11:57:58.573Z,37.65
2023-02-11T12:00:35.669Z,35.38
2023-02-11T12:03:16.319Z,37.33
2023-02-11T12:05:53.171Z,36.75
2023-02-11T12:08:31.557Z,30.17
2023-02-11T12:11:07.159Z,33.03
2023-02-11T12:14:06.574Z,30.95
2023-02-11T12:17:07.942Z,27.20
2023-02-11T12:20:10.122Z,29.23
2023-02-11T12:22:55.629Z,30.77
2023-02-11T12:25:35.813Z,28.48
2023-02-11T12:28:15.861Z,27.48
2023-02-11T12:30:59.680Z,28.25
2023-02-11T12:33:53.702Z,29.77
2023-02-11T12:36:45.215Z,28.70
2023-02-11T12:39:31.255Z,27.02
2023-02-11T12:42:33.364Z,26.83
2023-02-11T12:45:11.068Z,26.83
2023-02-11T12:48:00.593Z,24.15
2023-02-11T12:50:53.503Z,24.73
2023-02-11T12:53:44.030Z,25.85
2023-02-11T12:56:26.166Z,25.02
2023-02-11T12:58:54.841Z,25.52
2023-02-11T13:01:40.990Z,24.30
2023-02-11T13:04:15.972Z,24.40
2023-02-11T13:06:45.419Z,24.95
2023-02-11T13:09:18.897Z,24.52
2023-02-11T13:11:52.110Z,22.40
2023-02-11T13:14:29.143Z,23.42
2023-02-11T13:16:57.980Z,22.52
2023-02-11T13:19:36.299Z,23.30
2023-02-11T13:22:24.887Z,23.88
2023-02-11T13:25:14.567Z,22.23
2023-02-11T13:28:01.641Z,24.70
2023-02-11T13:30:36.248Z,25.13
2023-02-11T13:33:26.291Z,24.55
2023-02-11T13:35:55.878Z,26.42
2023-02-11T13:38:24.689Z,25.00
2023-02-11T13:41:16.534Z,24.30
2023-02-11T13:43:43.571Z,23.88
2023-02-11T13:46:14.859Z,24.15
2023-02-11T13:48:53.006Z,26.30
2023-02-11T13:51:35.835Z,24.20
2023-02-11T13:54:03.006Z,23.45
2023-02-11T13:56:38.250Z,22.98
2023-02-11T13:59:06.820Z,22.88
2023-02-11T14:02:12.537Z,25.02
2023-02-11T14:05:29.106Z,25.45
2023-02-11T14:08:29.680Z,24.67
2023-02-11T14:11:12.445Z,23.73
2023-02-11T14:13:48.197Z,25.55
2023-02-11T14:16:36.501Z,24.92
2023-02-11T14:19:05.287Z,25.00
2023-02-11T14:21:37.245Z,24.58
2023-02-11T14:24:10.990Z,25.13
2023-02-11T14:26:49.572Z,23.30
2023-02-11T14:29:18.544Z,22.50
2023-02-11T14:32:05.722Z,24.15
2023-02-11T14:35:10.308Z,23.67
2023-02-11T14:37:58.450Z,23.33
2023-02-11T14:40:38.184Z,22.85
2023-02-11T14:43:17.078Z,22.48
2023-02-11T14:45:45.807Z,22.92
2023-02-11T14:48:18.245Z,24.65
2023-02-11T14:50:47.038Z,26.10
2023-02-11T14:53:19.422Z,25.00
2023-02-11T14:55:52.319Z,25.65
2023-02-11T14:58:24.609Z,25.42
2023-02-11T15:00:53.045Z,24.45
2023-02-11T15:03:42.320Z,26.17
2023-02-11T15:06:21.432Z,23.38
2023-02-11T15:08:54.831Z,24.83
2023-02-11T15:11:22.845Z,27.52
2023-02-11T15:13:50.456Z,26.20
2023-02-11T15:16:20.863Z,27.45
2023-02-11T15:18:49.974Z,24.17
2023-02-11T15:21:24.148Z,23.77
2023-02-11T15:24:02.324Z,25.90
2023-02-11T15:26:29.739Z,23.45
2023-02-11T15:28:56.330Z,24.40
2023-02-11T15:31:25.645Z,23.40
2023-02-11T15:33:53.209Z,24.00
2023-02-11T15:36:27.989Z,20.92
2023-02-11T15:39:41.031Z,22.77
2023-02-11T15:42:17.687Z,21.75
2023-02-11T15:44:44.897Z,20.90
2023-02-11T15:47:19.746Z,22.88
2023-02-11T15:49:47.990Z,20.65
2023-02-11T15:52:23.494Z,22.15
2023-02-11T15:54:50.068Z,21.98
2023-02-11T15:57:17.960Z,21.33
2023-02-11T15:59:52.516Z,21.75
2023-02-11T16:02:30.982Z,19.67
2023-02-11T16:05:00.533Z,19.35
2023-02-11T16:07:50.774Z,19.55
2023-02-11T16:10:28.276Z,20.83
2023-02-11T16:13:03.646Z,17.92
2023-02-11T16:15:31.135Z,18.63
2023-02-11T16:17:57.854Z,20.80
2023-02-11T16:20:24.627Z,19.65
2023-02-11T16:22:51.298Z,17.58
2023-02-11T16:25:19.870Z,16.10
2023-02-11T16:27:52.226Z,14.73
2023-02-11T16:30:29.362Z,16.48
2023-02-11T16:32:56.016Z,15.40
2023-02-11T16:35:22.610Z,15.27
2023-02-11T16:37:49.140Z,15.80
2023-02-11T16:40:16.073Z,16.13
2023-02-11T16:42:42.902Z,16.65
2023-02-11T16:45:09.691Z,19.70
2023-02-11T16:47:40.871Z,14.65
2023-02-11T16:50:15.531Z,14.52
2023-02-11T16:52:42.986Z,16.20
2023-02-11T16:55:10.237Z,15.48
2023-02-11T16:57:36.776Z,13.88
2023-02-11T17:00:06.333Z,11.45
2023-02-11T17:02:36.985Z,15.52
2023-02-11T17:05:07.155Z,15.32
2023-02-11T17:07:33.927Z,13.02
2023-02-11T17:10:00.746Z,13.00
2023-02-11T17:12:27.495Z,14.10
2023-02-11T17:14:54.132Z,12.38
2023-02-11T17:17:23.253Z,12.82
2023-02-11T17:19:50.258Z,14.75
2023-02-11T17:22:16.833Z,13.90
2023-02-11T17:24:43.301Z,13.50
2023-02-11T17:27:11.510Z,14.13
2023-02-11T17:29:38.007Z,13.93
2023-02-11T17:32:04.591Z,12.88
2023-02-11T17:34:32.346Z,13.02
2023-02-11T17:37:00.121Z,13.68
2023-02-11T17:39:26.836Z,13.18
2023-02-11T17:41:53.308Z,11.93
2023-02-11T17:44:19.884Z,11.85
2023-02-11T17:46:46.355Z,12.40
2023-02-11T17:49:12.967Z,13.05
2023-02-11T17:51:40.047Z,12.75
2023-02-11T17:54:13.616Z,11.70
2023-02-11T17:56:40.414Z,11.82
2023-02-11T17:59:08.565Z,11.25
2023-02-11T18:01:36.374Z,10.45
2023-02-11T18:04:04.234Z,10.90
2023-02-11T18:06:31.264Z,9.20
2023-02-11T18:08:59.645Z,10.45
2023-02-11T18:11:26.139Z,9.57
2023-02-11T18:13:54.576Z,10.40
2023-02-11T18:16:22.210Z,11.00
2023-02-11T18:18:49.817Z,11.85
2023-02-11T18:21:18.315Z,11.90
2023-02-11T18:23:45.290Z,11.02
2023-02-11T18:26:13.140Z,11.63
2023-02-11T18:28:40.279Z,11.18
2023-02-11T18:31:07.585Z,11.93
2023-02-11T18:33:34.259Z,10.73
2023-02-11T18:36:06.271Z,10.48
2023-02-11T18:38:32.820Z,10.80
2023-02-11T18:40:59.551Z,10.75
2023-02-11T18:43:26.219Z,10.75
2023-02-11T18:45:52.973Z,10.43
2023-02-11T18:48:19.679Z,10.95
2023-02-11T18:50:46.603Z,9.93
2023-02-11T18:53:14.024Z,10.45
2023-02-11T18:55:42.650Z,10.88
2023-02-11T18:58:09.323Z,11.30
2023-02-11T19:00:37.099Z,10.25
2023-02-11T19:03:03.636Z,10.90
2023-02-11T19:05:33.603Z,11.05
2023-02-11T19:08:00.754Z,9.68
2023-02-11T19:10:28.211Z,9.55
2023-02-11T19:13:01.702Z,9.65
2023-02-11T19:15:28.286Z,10.88
2023-02-11T19:17:54.942Z,9.95
2023-02-11T19:20:21.463Z,9.77
2023-02-11T19:22:48.004Z,9.75
2023-02-11T19:25:14.603Z,12.73
2023-02-11T19:27:41.988Z,10.95
2023-02-11T19:30:09.969Z,10.48
2023-02-11T19:32:36.525Z,10.05
2023-02-11T19:35:03.903Z,9.52
2023-02-11T19:37:30.420Z,9.88
2023-02-11T19:39:56.955Z,10.43
2023-02-11T19:42:25.314Z,10.02
2023-02-11T19:44:53.690Z,9.57
2023-02-11T19:47:26.640Z,10.38
2023-02-11T19:49:53.830Z,10.52
2023-02-11T19:52:20.495Z,10.02
2023-02-11T19:54:47.000Z,11.13
2023-02-11T19:57:13.541Z,12.98
2023-02-11T19:59:40.090Z,16.60
2023-02-11T20:02:06.616Z,14.80
2023-02-11T20:04:33.281Z,11.75
2023-02-11T20:06:59.840Z,12.95
2023-02-11T20:09:27.256Z,12.73
2023-02-11T20:11:53.822Z,12.02
2023-02-11T20:14:20.305Z,11.68
2023-02-11T20:16:49.725Z,11.07
2023-02-11T20:19:19.244Z,10.93
2023-02-11T20:21:47.777Z,10.68
2023-02-11T20:24:15.849Z,11.13
2023-02-11T20:26:42.703Z,12.18
2023-02-11T20:29:09.537Z,11.50
2023-02-11T20:31:36.338Z,9.43
2023-02-11T20:34:02.973Z,10.48
2023-02-11T20:36:32.205Z,9.88
2023-02-11T20:38:59.941Z,10.35
2023-02-11T20:41:32.650Z,10.00
2023-02-11T20:44:01.567Z,9.43
2023-02-11T20:46:29.744Z,10.65
2023-02-11T20:48:57.465Z,10.23
2023-02-11T20:51:27.673Z,9.13
2023-02-11T20:53:54.519Z,11.37
2023-02-11T20:56:24.197Z,9.50
2023-02-11T20:58:50.775Z,8.02
2023-02-11T21:01:26.130Z,8.77
2023-02-11T21:03:55.738Z,9.90
2023-02-11T21:06:24.073Z,9.43
2023-02-11T21:08:50.582Z,8.52
2023-02-11T21:11:17.441Z,8.52
2023-02-11T21:13:43.956Z,8.40
2023-02-11T21:16:15.868Z,11.18
2023-02-11T21:18:42.742Z,9.30
2023-02-11T21:21:09.453Z,7.95
2023-02-11T21:23:35.933Z,7.68
2023-02-11T21:26:02.476Z,9.00
2023-02-11T21:28:29.038Z,7.93
2023-02-11T21:30:56.729Z,7.95
2023-02-11T21:33:24.881Z,8.73
2023-02-11T21:35:55.109Z,7.88
2023-02-11T21:38:22.381Z,9.00
2023-02-11T21:40:49.015Z,8.55
2023-02-11T21:43:15.659Z,8.25
2023-02-11T21:45:44.006Z,9.25
2023-02-11T21:48:11.041Z,10.15
2023-02-11T21:50:41.687Z,14.90
2023-02-11T21:53:08.764Z,9.88
2023-02-11T21:55:36.097Z,10.68
2023-02-11T21:58:03.149Z,10.00
2023-02-11T22:00:30.483Z,9.75
2023-02-11T22:02:57.124Z,9.80
2023-02-11T22:05:23.976Z,10.18
2023-02-11T22:07:50.994Z,10.85
2023-02-11T22:10:18.748Z,9.75
2023-02-11T22:12:45.908Z,10.27
2023-02-11T22:15:12.491Z,9.85
2023-02-11T22:17:39.005Z,10.75
2023-02-11T22:20:07.060Z,11.25
2023-02-11T22:22:33.677Z,11.05
2023-02-11T22:25:02.103Z,9.27
2023-02-11T22:27:28.744Z,8.88
2023-02-11T22:29:55.290Z,9.75
2023-02-11T22:32:21.968Z,9.23
2023-02-11T22:34:49.196Z,9.35
2023-02-11T22:37:16.997Z,9.38
2023-02-11T22:39:43.597Z,9.40
2023-02-11T22:42:10.123Z,9.60
2023-02-11T22:44:37.359Z,8.63
2023-02-11T22:47:04.028Z,8.80
2023-02-11T22:49:32.529Z,10.65
2023-02-11T22:51:59.430Z,10.60
2023-02-11T22:54:26.169Z,10.05
2023-02-11T22:56:53.443Z,10.25
2023-02-11T22:59:20.660Z,11.05
2023-02-11T23:01:47.290Z,10.10
2023-02-11T23:04:15.741Z,9.90
2023-02-11T23:06:42.767Z,9.35
2023-02-11T23:09:12.208Z,10.02
2023-02-11T23:11:39.361Z,9.60
2023-02-11T23:14:06.257Z,9.15
2023-02-11T23:16:34.142Z,9.13
2023-02-11T23:19:03.253Z,8.70
2023-02-11T23:21:32.026Z,9.57
2023-02-11T23:24:04.704Z,8.90
2023-02-11T23:26:31.487Z,9.50
2023-02-11T23:28:59.238Z,8.65
2023-02-11T23:31:30.975Z,10.32
2023-02-11T23:33:57.571Z,8.10
2023-02-11T23:36:24.073Z,7.88
2023-02-11T23:38:50.872Z,7.05
2023-02-11T23:41:17.738Z,7.28
2023-02-11T23:43:44.434Z,7.63
2023-02-11T23:46:11.057Z,7.90
2023-02-11T23:48:37.817Z,7.80
2023-02-11T23:51:04.544Z,7.07
2023-02-11T23:53:31.054Z,8.13
2023-02-11T23:55:57.724Z,8.27
2023-02-11T23:58:24.271Z,7.82
